createdAt,value
2022-08-14T00:01:11.426Z,5.55
2022-08-14T00:03:40.646Z,5.00
2022-08-14T00:06:25.897Z,5.40
2022-08-14T00:08:55.569Z,5.47
2022-08-14T00:11:28.855Z,5.18
2022-08-14T00:13:58.891Z,5.25
2022-08-14T00:16:41.665Z,5.57
2022-08-14T00:19:19.865Z,5.85
2022-08-14T00:21:50.266Z,6.22
2022-08-14T00:24:28.236Z,5.03
2022-08-14T00:26:55.613Z,6.10
2022-08-14T00:29:22.018Z,5.50
2022-08-14T00:31:53.878Z,5.55
2022-08-14T00:34:36.651Z,5.60
2022-08-14T00:37:05.612Z,5.53
2022-08-14T00:39:32.830Z,5.50
2022-08-14T00:41:59.539Z,6.10
2022-08-14T00:44:32.449Z,6.28
2022-08-14T00:47:00.298Z,5.45
2022-08-14T00:49:28.616Z,5.70
2022-08-14T00:51:56.909Z,5.97
2022-08-14T00:54:24.655Z,6.07
2022-08-14T00:56:54.926Z,5.97
2022-08-14T00:59:23.366Z,6.13
2022-08-14T01:01:51.690Z,5.93
2022-08-14T01:07:08.248Z,6.30
2022-08-14T01:09:36.509Z,6.75
2022-08-14T01:12:05.279Z,6.60
2022-08-14T01:14:32.683Z,5.82
2022-08-14T01:17:02.067Z,6.55
2022-08-14T01:19:48.123Z,6.28
2022-08-14T01:22:18.658Z,6.00
2022-08-14T01:24:46.154Z,7.22
2022-08-14T01:27:18.817Z,6.88
2022-08-14T01:30:03.722Z,6.68
2022-08-14T01:32:37.599Z,7.10
2022-08-14T01:35:18.571Z,6.63
2022-08-14T01:37:57.657Z,6.47
2022-08-14T01:40:36.955Z,6.20
2022-08-14T01:43:18.320Z,6.97
2022-08-14T01:45:57.874Z,7.22
2022-08-14T01:48:33.973Z,6.93
2022-08-14T01:51:05.970Z,6.90
2022-08-14T01:53:48.315Z,7.57
2022-08-14T01:56:23.852Z,7.68
2022-08-14T01:58:58.015Z,7.07
2022-08-14T02:01:26.555Z,7.65
2022-08-14T02:03:57.207Z,7.85
2022-08-14T02:06:33.304Z,8.02
2022-08-14T02:09:02.497Z,7.45
2022-08-14T02:11:31.052Z,7.63
2022-08-14T02:14:07.291Z,7.97
2022-08-14T02:16:39.129Z,8.18
2022-08-14T02:19:11.466Z,6.88
2022-08-14T02:21:46.837Z,7.60
2022-08-14T02:24:39.907Z,7.65
2022-08-14T02:30:00.636Z,7.97
2022-08-14T02:32:36.170Z,7.22
2022-08-14T02:35:16.551Z,7.55
2022-08-14T02:37:48.458Z,7.93
2022-08-14T02:40:16.405Z,7.72
2022-08-14T02:42:54.168Z,7.97
2022-08-14T02:45:22.118Z,7.97
2022-08-14T02:47:49.756Z,8.00
2022-08-14T02:50:27.284Z,8.10
2022-08-14T02:53:14.906Z,7.82
2022-08-14T02:55:43.359Z,8.00
2022-08-14T02:58:10.030Z,8.85
2022-08-14T03:00:49.474Z,8.73
2022-08-14T03:03:17.647Z,8.25
2022-08-14T03:05:44.144Z,7.93
2022-08-14T03:08:15.778Z,8.93
2022-08-14T03:10:48.629Z,8.02
2022-08-14T03:13:19.760Z,8.40
2022-08-14T03:15:55.184Z,8.82
2022-08-14T03:18:30.800Z,8.32
2022-08-14T03:21:05.337Z,8.43
2022-08-14T03:23:38.222Z,8.27
2022-08-14T03:26:12.919Z,9.07
2022-08-14T03:28:48.288Z,8.80
2022-08-14T03:31:16.641Z,9.25
2022-08-14T03:33:43.421Z,9.05
2022-08-14T03:37:38.964Z,8.90
2022-08-14T03:39:13.788Z,8.88
2022-08-14T03:41:45.288Z,9.18
2022-08-14T03:45:27.630Z,8.93
2022-08-14T03:46:58.307Z,8.70
2022-08-14T03:49:28.759Z,8.65
2022-08-14T03:51:58.355Z,9.05
2022-08-14T03:54:28.449Z,9.15
2022-08-14T03:57:00.527Z,9.43
2022-08-14T03:59:29.595Z,9.05
2022-08-14T04:02:01.951Z,9.77
2022-08-14T04:04:32.353Z,9.63
2022-08-14T04:07:00.721Z,9.63
2022-08-14T04:09:28.827Z,9.88
2022-08-14T04:11:56.053Z,9.30
2022-08-14T04:14:24.270Z,9.30
2022-08-14T04:16:50.722Z,10.02
2022-08-14T04:19:19.317Z,8.35
2022-08-14T04:22:03.509Z,9.35
2022-08-14T04:24:31.830Z,10.18
2022-08-14T04:27:09.704Z,9.98
2022-08-14T04:29:41.251Z,10.18
2022-08-14T04:32:58.632Z,10.25
2022-08-14T04:37:42.826Z,9.70
2022-08-14T04:40:28.695Z,10.20
2022-08-14T04:43:17.129Z,10.80
2022-08-14T04:45:44.923Z,9.77
2022-08-14T04:48:38.781Z,10.73
2022-08-14T04:51:03.507Z,10.45
2022-08-14T04:53:35.329Z,10.38
2022-08-14T04:56:06.076Z,11.05
2022-08-14T04:58:37.782Z,10.32
